createdAt,value
2022-10-04T00:02:16.213Z,6.73
2022-10-04T00:05:04.244Z,6.70
2022-10-04T00:07:41.142Z,6.65
2022-10-04T00:10:26.031Z,6.61
2022-10-04T00:13:00.372Z,6.56
2022-10-04T00:15:38.931Z,6.54
2022-10-04T00:18:12.662Z,6.57
2022-10-04T00:20:56.640Z,6.59
2022-10-04T00:23:27.057Z,6.63
2022-10-04T00:26:04.791Z,6.66
2022-10-04T00:28:47.100Z,6.66
2022-10-04T00:31:23.204Z,6.64
2022-10-04T00:33:54.116Z,6.63
2022-10-04T00:36:26.421Z,6.61
2022-10-04T00:39:14.289Z,6.60
2022-10-04T00:41:50.214Z,6.57
2022-10-04T00:44:41.056Z,6.57
2022-10-04T00:47:37.860Z,6.58
2022-10-04T00:50:19.261Z,6.54
2022-10-04T00:52:53.747Z,6.55
2022-10-04T00:55:25.834Z,6.58
2022-10-04T00:58:00.664Z,6.56
2022-10-04T01:00:35.372Z,6.52
2022-10-04T01:03:31.117Z,6.49
2022-10-04T01:06:04.258Z,6.47
2022-10-04T01:08:41.226Z,6.47
2022-10-04T01:11:17.026Z,6.49
2022-10-04T01:14:19.145Z,6.54
2022-10-04T01:16:49.153Z,6.66
2022-10-04T01:19:22.875Z,6.70
2022-10-04T01:22:05.399Z,6.73
2022-10-04T01:24:41.935Z,6.76
2022-10-04T01:27:37.374Z,6.80
2022-10-04T01:30:12.150Z,6.78
2022-10-04T01:32:41.506Z,6.76
2022-10-04T01:35:12.317Z,6.76
2022-10-04T01:37:41.198Z,6.74
2022-10-04T01:40:11.422Z,6.73
2022-10-04T01:42:50.831Z,6.71
2022-10-04T01:45:25.562Z,6.73
2022-10-04T01:48:00.855Z,6.78
2022-10-04T01:50:34.507Z,6.84
2022-10-04T01:53:36.146Z,6.87
2022-10-04T01:56:17.227Z,6.93
2022-10-04T01:59:04.844Z,6.95
2022-10-04T02:01:52.168Z,6.96
2022-10-04T02:04:28.556Z,6.98
2022-10-04T02:06:59.473Z,6.98
2022-10-04T02:09:33.855Z,6.97
2022-10-04T02:12:03.522Z,6.98
2022-10-04T02:14:43.100Z,6.99
2022-10-04T02:17:12.506Z,7.02
2022-10-04T02:19:42.313Z,7.03
2022-10-04T02:22:11.194Z,7.07
2022-10-04T02:24:44.343Z,7.10
2022-10-04T02:27:14.377Z,7.13
2022-10-04T02:29:43.655Z,7.17
2022-10-04T02:32:33.642Z,7.19
2022-10-04T02:35:04.609Z,7.19
2022-10-04T02:37:32.942Z,7.18
2022-10-04T02:40:13.751Z,7.20
2022-10-04T02:42:49.976Z,7.23
2022-10-04T02:45:37.231Z,7.19
2022-10-04T02:48:21.391Z,7.16
2022-10-04T02:50:54.086Z,7.14
2022-10-04T02:53:30.049Z,7.15
2022-10-04T02:55:58.668Z,7.12
2022-10-04T02:58:27.564Z,7.11
2022-10-04T03:01:00.618Z,7.10
2022-10-04T03:03:30.905Z,7.09
2022-10-04T03:06:08.820Z,7.06
2022-10-04T03:08:55.980Z,7.03
2022-10-04T03:11:31.322Z,7.02
2022-10-04T03:14:03.152Z,7.02
2022-10-04T03:16:38.751Z,7.00
2022-10-04T03:19:09.201Z,6.98
2022-10-04T03:21:40.509Z,6.98
2022-10-04T03:24:15.051Z,6.98
2022-10-04T03:26:48.099Z,6.96
2022-10-04T03:29:18.996Z,6.87
2022-10-04T03:31:53.140Z,6.84
2022-10-04T03:34:27.548Z,6.76
2022-10-04T03:36:58.345Z,6.69
2022-10-04T03:39:34.693Z,6.63
2022-10-04T03:42:28.845Z,6.56
2022-10-04T03:45:01.684Z,6.48
2022-10-04T03:47:38.377Z,6.40
2022-10-04T03:50:34.379Z,6.37
2022-10-04T03:53:26.296Z,6.36
2022-10-04T03:55:54.796Z,6.36
2022-10-04T03:58:25.295Z,6.37
2022-10-04T04:01:10.511Z,6.34
2022-10-04T04:03:53.684Z,6.31
2022-10-04T04:06:23.526Z,6.29
2022-10-04T04:08:54.819Z,6.27
2022-10-04T04:11:26.745Z,6.27
2022-10-04T04:14:21.685Z,6.22
2022-10-04T04:16:49.457Z,6.16
2022-10-04T04:19:24.095Z,6.13
2022-10-04T04:21:54.632Z,6.07
2022-10-04T04:24:28.019Z,6.00
2022-10-04T04:27:02.747Z,5.93
2022-10-04T04:29:42.453Z,5.89
2022-10-04T04:32:41.675Z,5.85
2022-10-04T04:35:30.349Z,5.82
2022-10-04T04:38:20.644Z,5.78
2022-10-04T04:40:48.235Z,5.75
2022-10-04T04:43:20.269Z,5.73
2022-10-04T04:46:03.005Z,5.75
2022-10-04T04:48:37.265Z,5.78
2022-10-04T04:51:05.200Z,5.79
2022-10-04T04:53:32.716Z,5.81
2022-10-04T04:56:04.699Z,5.84
2022-10-04T04:58:46.172Z,5.87
2022-10-04T05:01:35.127Z,5.92
2022-10-04T05:04:06.617Z,5.97
2022-10-04T05:06:37.490Z,6.02
2022-10-04T05:09:05.674Z,6.09
2022-10-04T05:11:37.337Z,6.15
2022-10-04T05:14:11.886Z,6.21
2022-10-04T05:16:46.986Z,6.28
2022-10-04T05:19:28.087Z,6.36
2022-10-04T05:21:57.892Z,6.40
2022-10-04T05:24:41.114Z,6.44
2022-10-04T05:27:23.081Z,6.51
2022-10-04T05:30:19.392Z,6.54
2022-10-04T05:33:05.448Z,6.62
2022-10-04T05:35:50.302Z,6.71
2022-10-04T05:38:48.170Z,6.80
2022-10-04T05:41:42.488Z,6.89
2022-10-04T05:44:36.594Z,7.00
2022-10-04T05:47:07.925Z,7.10
2022-10-04T05:49:43.922Z,7.18
2022-10-04T05:52:35.875Z,7.34
2022-10-04T05:55:12.749Z,7.54
2022-10-04T05:57:54.950Z,7.83
2022-10-04T06:00:47.814Z,8.16
2022-10-04T06:03:29.235Z,8.50
2022-10-04T06:06:20.466Z,8.81
2022-10-04T06:08:51.240Z,9.11
2022-10-04T06:11:24.837Z,9.35
2022-10-04T06:14:26.906Z,9.51
2022-10-04T06:17:30.681Z,9.81
2022-10-04T06:20:03.634Z,9.99
2022-10-04T06:22:32.780Z,10.36
2022-10-04T06:25:08.777Z,10.54
2022-10-04T06:27:41.873Z,10.75
2022-10-04T06:30:15.250Z,10.88
2022-10-04T06:32:51.579Z,11.04
2022-10-04T06:35:44.001Z,11.14
2022-10-04T06:38:34.514Z,11.61
2022-10-04T06:41:09.604Z,11.78
2022-10-04T06:43:39.902Z,11.90
2022-10-04T06:46:25.652Z,12.23
2022-10-04T06:48:53.864Z,12.16
2022-10-04T06:51:33.214Z,12.41
2022-10-04T06:54:37.817Z,12.43
2022-10-04T06:57:33.053Z,12.67
2022-10-04T07:00:13.819Z,12.74
2022-10-04T07:02:59.935Z,12.28
2022-10-04T07:05:52.313Z,12.04
2022-10-04T07:08:32.061Z,12.28
2022-10-04T07:11:17.804Z,12.73
2022-10-04T07:13:51.056Z,13.12
2022-10-04T07:16:26.706Z,13.22
2022-10-04T07:19:19.561Z,13.40
2022-10-04T07:22:14.863Z,13.11
2022-10-04T07:24:45.356Z,12.87
2022-10-04T07:27:31.714Z,13.13
2022-10-04T07:30:04.463Z,13.77
2022-10-04T07:32:38.322Z,14.29
2022-10-04T07:35:13.508Z,14.86
2022-10-04T07:38:04.424Z,14.69
2022-10-04T07:40:38.293Z,15.16
2022-10-04T07:43:22.287Z,15.13
2022-10-04T07:45:51.244Z,15.29
2022-10-04T07:48:25.689Z,15.48
2022-10-04T07:51:18.232Z,15.55
2022-10-04T07:54:09.954Z,15.73
2022-10-04T07:56:47.000Z,15.17
2022-10-04T07:59:52.398Z,14.81
2022-10-04T08:02:58.221Z,14.60
2022-10-04T08:05:41.275Z,14.05
2022-10-04T08:08:17.755Z,13.90
2022-10-04T08:10:57.381Z,13.73
2022-10-04T08:13:42.519Z,13.50
2022-10-04T08:16:48.968Z,13.28
2022-10-04T08:19:25.689Z,13.07
2022-10-04T08:22:11.197Z,12.88
2022-10-04T08:24:53.249Z,12.80
2022-10-04T08:28:21.284Z,12.65
2022-10-04T08:31:26.344Z,12.60
2022-10-04T08:33:54.058Z,12.26
2022-10-04T08:36:27.399Z,12.19
2022-10-04T08:38:58.695Z,11.91
2022-10-04T08:41:47.436Z,11.48
2022-10-04T08:44:45.778Z,11.52
2022-10-04T08:47:31.787Z,11.36
2022-10-04T08:50:17.616Z,11.24
2022-10-04T08:52:56.703Z,11.04
2022-10-04T08:56:02.077Z,11.21
2022-10-04T08:58:51.271Z,11.11
2022-10-04T09:01:50.296Z,11.25
2022-10-04T09:04:40.118Z,11.35
2022-10-04T09:07:41.473Z,11.51
2022-10-04T09:10:13.435Z,12.08
2022-10-04T09:12:44.170Z,12.72
2022-10-04T09:15:22.179Z,13.26
2022-10-04T09:18:12.372Z,13.65
2022-10-04T09:20:51.347Z,13.45
2022-10-04T09:23:30.628Z,12.89
2022-10-04T09:26:13.034Z,13.37
2022-10-04T09:29:04.899Z,14.47
2022-10-04T09:31:51.398Z,15.33
2022-10-04T09:35:05.924Z,16.42
2022-10-04T09:37:47.909Z,16.94
2022-10-04T09:40:45.336Z,17.39
2022-10-04T09:43:43.971Z,17.50
2022-10-04T09:46:42.013Z,17.38
2022-10-04T09:49:50.180Z,17.66
2022-10-04T09:52:26.720Z,16.22
2022-10-04T09:55:04.733Z,16.96
2022-10-04T09:57:41.373Z,17.22
2022-10-04T10:00:33.556Z,17.34
2022-10-04T10:03:34.585Z,17.73
2022-10-04T10:06:22.975Z,18.19
2022-10-04T10:09:10.447Z,18.10
2022-10-04T10:12:30.132Z,17.87
2022-10-04T10:15:09.159Z,16.77
2022-10-04T10:17:50.961Z,16.00
2022-10-04T10:21:01.515Z,15.16
2022-10-04T10:23:40.776Z,15.07
2022-10-04T10:26:44.991Z,14.54
2022-10-04T10:29:24.716Z,14.20
2022-10-04T10:32:09.679Z,13.92
2022-10-04T10:34:36.834Z,13.84
2022-10-04T10:37:13.304Z,13.12
2022-10-04T10:39:59.017Z,12.22
2022-10-04T10:43:18.293Z,11.37
2022-10-04T10:45:56.060Z,11.32
2022-10-04T10:48:26.044Z,11.41
2022-10-04T10:51:00.927Z,11.44
2022-10-04T10:53:44.849Z,11.66
2022-10-04T10:56:40.262Z,11.97
2022-10-04T11:00:01.927Z,12.97
2022-10-04T11:02:49.882Z,14.27
2022-10-04T11:05:30.180Z,14.60
2022-10-04T11:08:27.333Z,15.47
2022-10-04T11:11:05.360Z,15.80
2022-10-04T11:13:54.076Z,16.92
2022-10-04T11:16:59.036Z,17.67
2022-10-04T11:19:53.960Z,17.88
2022-10-04T11:23:02.963Z,18.36
2022-10-04T11:25:52.832Z,18.56
2022-10-04T11:28:57.170Z,18.72
2022-10-04T11:31:55.102Z,19.22
2022-10-04T11:34:47.269Z,18.55
2022-10-04T11:37:22.626Z,18.18
2022-10-04T11:40:11.670Z,18.44
2022-10-04T11:42:38.700Z,18.99
2022-10-04T11:45:26.873Z,19.27
2022-10-04T11:48:38.715Z,19.58
2022-10-04T11:51:44.596Z,19.93
2022-10-04T11:54:31.291Z,20.56
2022-10-04T11:57:04.116Z,20.47
2022-10-04T11:59:49.934Z,19.45
2022-10-04T12:02:53.289Z,19.98
2022-10-04T12:05:29.590Z,20.01
2022-10-04T12:08:15.421Z,20.09
2022-10-04T12:10:49.118Z,20.57
2022-10-04T12:13:50.700Z,20.75
2022-10-04T12:16:51.955Z,20.79
2022-10-04T12:19:43.679Z,20.44
2022-10-04T12:22:32.523Z,21.41
2022-10-04T12:25:20.880Z,20.57
2022-10-04T12:28:25.961Z,21.01
2022-10-04T12:31:00.755Z,20.31
2022-10-04T12:33:48.688Z,20.03
2022-10-04T12:36:24.647Z,19.54
2022-10-04T12:39:39.286Z,20.23
2022-10-04T12:42:32.246Z,20.85
2022-10-04T12:45:16.814Z,21.38
2022-10-04T12:48:08.850Z,21.85
2022-10-04T12:50:42.352Z,21.47
2022-10-04T12:53:34.070Z,21.11
2022-10-04T12:56:21.876Z,21.22
2022-10-04T12:59:05.953Z,20.94
2022-10-04T13:01:49.879Z,21.11
2022-10-04T13:04:30.156Z,19.47
2022-10-04T13:07:21.475Z,18.04
2022-10-04T13:10:25.230Z,17.93
2022-10-04T13:13:11.894Z,17.39
2022-10-04T13:18:40.285Z,16.09
2022-10-04T13:21:40.696Z,15.40
2022-10-04T13:24:53.082Z,14.89
2022-10-04T13:27:38.208Z,14.09
2022-10-04T13:30:13.750Z,13.79
2022-10-04T13:32:51.877Z,13.29
2022-10-04T13:36:08.222Z,12.67
2022-10-04T13:38:46.386Z,12.30
2022-10-04T13:41:51.130Z,11.95
2022-10-04T13:44:51.487Z,11.78
2022-10-04T13:47:54.099Z,11.68
2022-10-04T13:50:58.494Z,11.74
2022-10-04T13:53:53.983Z,11.80
2022-10-04T13:57:05.473Z,11.97
2022-10-04T13:59:48.717Z,12.07
2022-10-04T14:02:18.855Z,12.22
2022-10-04T14:05:11.524Z,12.35
2022-10-04T14:08:05.132Z,12.49
2022-10-04T14:10:50.875Z,12.77
2022-10-04T14:13:36.673Z,13.11
2022-10-04T14:16:03.875Z,13.15
2022-10-04T14:18:58.800Z,13.19
2022-10-04T14:22:05.890Z,13.42
2022-10-04T14:24:46.237Z,14.26
2022-10-04T14:27:37.065Z,14.82
2022-10-04T14:30:30.343Z,15.24
2022-10-04T14:33:31.168Z,15.66
2022-10-04T14:36:16.943Z,15.71
2022-10-04T14:38:48.396Z,15.09
2022-10-04T14:41:27.696Z,14.43
2022-10-04T14:44:13.788Z,13.82
2022-10-04T14:47:19.241Z,12.99
2022-10-04T14:50:04.850Z,13.42
2022-10-04T14:52:43.883Z,13.93
2022-10-04T14:55:40.730Z,14.37
2022-10-04T14:58:30.918Z,14.59
2022-10-04T15:01:27.427Z,14.01
2022-10-04T15:04:14.855Z,13.50
2022-10-04T15:07:21.246Z,13.19
2022-10-04T15:10:12.166Z,12.48
2022-10-04T15:13:09.794Z,11.84
2022-10-04T15:15:39.221Z,12.13
2022-10-04T15:18:28.695Z,12.58
2022-10-04T15:21:14.230Z,12.88
2022-10-04T15:23:49.776Z,13.09
2022-10-04T15:26:22.860Z,13.13
2022-10-04T15:28:51.758Z,12.61
2022-10-04T15:31:22.375Z,12.02
2022-10-04T15:34:06.474Z,11.47
2022-10-04T15:36:51.355Z,10.97
2022-10-04T15:39:57.255Z,10.59
2022-10-04T15:42:36.963Z,10.20
2022-10-04T15:45:19.840Z,10.00
2022-10-04T15:48:10.994Z,9.81
2022-10-04T15:51:04.064Z,9.69
2022-10-04T15:53:52.581Z,9.51
2022-10-04T15:56:22.401Z,9.38
2022-10-04T15:59:11.662Z,9.30
2022-10-04T16:01:54.616Z,9.24
2022-10-04T16:04:44.387Z,9.14
2022-10-04T16:07:27.729Z,9.02
2022-10-04T16:10:18.909Z,8.89
2022-10-04T16:13:11.281Z,8.81
2022-10-04T16:15:40.558Z,8.77
2022-10-04T16:18:41.458Z,8.74
2022-10-04T16:21:28.238Z,8.67
2022-10-04T16:24:20.205Z,8.62
2022-10-04T16:26:47.624Z,8.58
2022-10-04T16:29:36.843Z,8.55
2022-10-04T16:32:19.387Z,8.51
2022-10-04T16:34:55.009Z,8.46
2022-10-04T16:37:31.202Z,8.43
2022-10-04T16:40:26.275Z,8.38
2022-10-04T16:43:08.790Z,8.35
2022-10-04T16:45:50.253Z,8.33
2022-10-04T16:49:00.687Z,8.32
2022-10-04T16:51:56.959Z,8.29
2022-10-04T16:54:34.233Z,8.25
2022-10-04T16:57:02.631Z,8.25
2022-10-04T16:59:39.124Z,8.26
2022-10-04T17:02:39.645Z,8.29
2022-10-04T17:05:43.848Z,8.32
2022-10-04T17:08:16.699Z,8.36
2022-10-04T17:10:49.927Z,8.41
2022-10-04T17:13:37.663Z,8.41
2022-10-04T17:16:18.110Z,8.40
2022-10-04T17:19:13.060Z,8.39
2022-10-04T17:21:45.866Z,8.40
2022-10-04T17:24:46.625Z,8.42
2022-10-04T17:27:25.769Z,8.46
2022-10-04T17:30:03.013Z,8.47
2022-10-04T17:32:48.416Z,8.43
2022-10-04T17:35:38.563Z,8.38
2022-10-04T17:38:17.134Z,8.33
2022-10-04T17:40:58.443Z,8.28
2022-10-04T17:43:25.445Z,8.25
2022-10-04T17:46:00.763Z,8.23
2022-10-04T17:48:50.829Z,8.19
2022-10-04T17:51:57.018Z,8.14
2022-10-04T17:54:59.269Z,8.08
2022-10-04T17:57:55.999Z,8.04
2022-10-04T18:00:49.208Z,8.01
2022-10-04T18:03:25.061Z,8.00
2022-10-04T18:05:57.579Z,8.01
2022-10-04T18:08:46.216Z,8.00
2022-10-04T18:11:56.829Z,8.01
2022-10-04T18:14:30.049Z,8.01
2022-10-04T18:17:12.953Z,8.02
2022-10-04T18:19:48.098Z,8.02
2022-10-04T18:22:16.589Z,8.02
2022-10-04T18:24:46.057Z,8.01
2022-10-04T18:27:20.948Z,7.98
2022-10-04T18:30:14.762Z,7.93
2022-10-04T18:33:01.319Z,7.85
2022-10-04T18:35:32.111Z,7.76
2022-10-04T18:38:05.148Z,7.68
2022-10-04T18:40:40.615Z,7.59
2022-10-04T18:43:34.797Z,7.52
2022-10-04T18:46:14.221Z,7.46
2022-10-04T18:49:01.337Z,7.39
2022-10-04T18:51:37.273Z,7.33
2022-10-04T18:54:26.049Z,7.25
2022-10-04T18:56:53.223Z,7.13
2022-10-04T19:00:14.754Z,7.04
2022-10-04T19:03:19.511Z,6.95
2022-10-04T19:05:57.347Z,6.87
2022-10-04T19:09:17.642Z,6.81
2022-10-04T19:11:51.478Z,6.74
2022-10-04T19:14:24.848Z,6.68
2022-10-04T19:17:03.667Z,6.62
2022-10-04T19:19:39.509Z,6.59
2022-10-04T19:22:15.374Z,6.54
2022-10-04T19:24:51.487Z,6.50
2022-10-04T19:27:47.187Z,6.47
2022-10-04T19:30:24.402Z,6.44
2022-10-04T19:33:11.261Z,6.44
2022-10-04T19:36:03.288Z,6.46
2022-10-04T19:38:43.436Z,6.47
2022-10-04T19:41:54.938Z,6.54
2022-10-04T19:44:36.945Z,6.59
2022-10-04T19:47:35.813Z,6.66
2022-10-04T19:50:12.756Z,6.71
2022-10-04T19:52:40.438Z,6.73
2022-10-04T19:55:22.110Z,6.77
2022-10-04T19:58:04.655Z,6.79
2022-10-04T20:00:35.449Z,6.80
2022-10-04T20:03:11.183Z,6.85
2022-10-04T20:05:50.028Z,6.89
2022-10-04T20:08:54.800Z,6.91
2022-10-04T20:11:48.253Z,6.96
2022-10-04T20:14:15.927Z,7.00
2022-10-04T20:16:46.206Z,7.04
2022-10-04T20:19:29.068Z,7.07
2022-10-04T20:22:12.174Z,7.08
2022-10-04T20:24:39.241Z,7.09
2022-10-04T20:27:33.220Z,7.10
2022-10-04T20:30:03.860Z,7.08
2022-10-04T20:32:36.501Z,7.07
2022-10-04T20:35:09.410Z,7.06
2022-10-04T20:38:13.614Z,7.01
2022-10-04T20:40:44.979Z,6.95
2022-10-04T20:43:14.986Z,6.92
2022-10-04T20:45:49.815Z,6.88
2022-10-04T20:48:22.819Z,6.87
2022-10-04T20:50:51.897Z,6.84
2022-10-04T20:53:23.783Z,6.82
2022-10-04T20:56:07.605Z,6.81
2022-10-04T20:58:35.628Z,6.82
2022-10-04T21:01:44.396Z,6.83
2022-10-04T21:04:18.961Z,6.85
2022-10-04T21:06:54.723Z,6.86
2022-10-04T21:09:25.180Z,6.86
2022-10-04T21:11:54.718Z,6.86
2022-10-04T21:14:23.418Z,6.86
2022-10-04T21:16:53.893Z,6.87
2022-10-04T21:19:33.322Z,6.86
2022-10-04T21:22:05.662Z,6.84
2022-10-04T21:24:37.072Z,6.84
2022-10-04T21:27:06.614Z,6.85
2022-10-04T21:29:34.512Z,6.85
2022-10-04T21:32:02.431Z,6.85
2022-10-04T21:34:51.804Z,6.87
2022-10-04T21:37:18.295Z,6.89
2022-10-04T21:39:52.268Z,6.93
2022-10-04T21:42:19.697Z,6.98
2022-10-04T21:44:46.850Z,7.02
2022-10-04T21:47:14.248Z,7.05
2022-10-04T21:49:42.274Z,7.09
2022-10-04T21:52:09.942Z,7.12
2022-10-04T21:54:37.297Z,7.12
2022-10-04T21:57:04.768Z,7.12
2022-10-04T21:59:32.182Z,7.11
2022-10-04T22:01:59.524Z,7.11
2022-10-04T22:04:27.016Z,7.11
2022-10-04T22:06:57.850Z,7.09
2022-10-04T22:09:27.651Z,7.05
2022-10-04T22:11:56.034Z,6.99
2022-10-04T22:14:23.720Z,6.90
2022-10-04T22:16:52.023Z,6.80
2022-10-04T22:19:20.249Z,6.73
2022-10-04T22:21:50.566Z,6.66
2022-10-04T22:24:20.320Z,6.57
2022-10-04T22:26:49.974Z,6.49
2022-10-04T22:29:18.646Z,6.42
2022-10-04T22:31:52.676Z,6.37
2022-10-04T22:34:22.355Z,6.34
2022-10-04T22:36:51.709Z,6.33
2022-10-04T22:39:20.591Z,6.33
2022-10-04T22:41:55.175Z,6.36
2022-10-04T22:44:25.866Z,6.40
2022-10-04T22:46:56.886Z,6.43
2022-10-04T22:49:27.620Z,6.45
2022-10-04T22:51:58.186Z,6.47
2022-10-04T22:54:32.325Z,6.50
2022-10-04T22:57:04.541Z,6.53
2022-10-04T22:59:39.869Z,6.57
2022-10-04T23:02:17.683Z,6.59
2022-10-04T23:04:51.241Z,6.62
2022-10-04T23:07:19.655Z,6.65
2022-10-04T23:09:53.426Z,6.67
2022-10-04T23:12:21.947Z,6.68
2022-10-04T23:14:49.885Z,6.68
2022-10-04T23:17:30.376Z,6.65
2022-10-04T23:20:01.408Z,6.60
2022-10-04T23:22:31.639Z,6.52
2022-10-04T23:24:59.967Z,6.44
2022-10-04T23:27:29.009Z,6.35
2022-10-04T23:30:09.449Z,6.24
2022-10-04T23:32:37.614Z,6.14
2022-10-04T23:35:17.957Z,6.06
2022-10-04T23:37:48.478Z,5.97
2022-10-04T23:40:20.550Z,5.91
2022-10-04T23:42:50.715Z,5.85
2022-10-04T23:45:23.066Z,5.80
2022-10-04T23:47:58.900Z,5.77
2022-10-04T23:50:33.678Z,5.75
2022-10-04T23:53:11.463Z,5.75
2022-10-04T23:55:43.736Z,5.76
2022-10-04T23:58:23.328Z,5.78
